sensor_id;sensor_type;location;lat;lon;timestamp;temperature;humidity
71668;DHT22;59504;54.806;9.640;2023-04-08T00:02:06;5.90;69.10
71668;DHT22;59504;54.806;9.640;2023-04-08T00:04:27;5.90;69.10
71668;DHT22;59504;54.806;9.640;2023-04-08T00:06:47;5.90;69.30
71668;DHT22;59504;54.806;9.640;2023-04-08T00:09:08;5.90;69.20
71668;DHT22;59504;54.806;9.640;2023-04-08T00:11:28;6.00;69.10
71668;DHT22;59504;54.806;9.640;2023-04-08T00:13:49;6.00;69.20
71668;DHT22;59504;54.806;9.640;2023-04-08T00:16:09;6.00;69.30
71668;DHT22;59504;54.806;9.640;2023-04-08T00:18:30;6.00;69.60
71668;DHT22;59504;54.806;9.640;2023-04-08T00:20:51;6.00;69.20
71668;DHT22;59504;54.806;9.640;2023-04-08T00:23:11;6.00;69.30
71668;DHT22;59504;54.806;9.640;2023-04-08T00:25:32;6.00;69.70
71668;DHT22;59504;54.806;9.640;2023-04-08T00:27:53;6.00;69.70
71668;DHT22;59504;54.806;9.640;2023-04-08T00:30:13;6.00;69.60
71668;DHT22;59504;54.806;9.640;2023-04-08T00:32:35;6.00;69.70
71668;DHT22;59504;54.806;9.640;2023-04-08T00:34:55;6.00;69.80
71668;DHT22;59504;54.806;9.640;2023-04-08T00:37:16;6.00;70.00
71668;DHT22;59504;54.806;9.640;2023-04-08T00:39:36;6.00;70.00
71668;DHT22;59504;54.806;9.640;2023-04-08T00:41:57;6.00;70.10
71668;DHT22;59504;54.806;9.640;2023-04-08T00:43:57;6.00;70.00
71668;DHT22;59504;54.806;9.640;2023-04-08T00:45:58;6.00;69.70
71668;DHT22;59504;54.806;9.640;2023-04-08T00:47:58;6.10;70.00
71668;DHT22;59504;54.806;9.640;2023-04-08T00:49:59;6.00;70.20
71668;DHT22;59504;54.806;9.640;2023-04-08T00:52:00;6.10;70.00
71668;DHT22;59504;54.806;9.640;2023-04-08T00:54:01;6.10;70.30
71668;DHT22;59504;54.806;9.640;2023-04-08T00:56:04;6.10;70.30
71668;DHT22;59504;54.806;9.640;2023-04-08T00:58:04;6.10;70.40
71668;DHT22;59504;54.806;9.640;2023-04-08T01:00:05;6.00;70.60
71668;DHT22;59504;54.806;9.640;2023-04-08T01:04:10;6.10;70.70
71668;DHT22;59504;54.806;9.640;2023-04-08T01:06:21;6.10;70.50
71668;DHT22;59504;54.806;9.640;2023-04-08T01:08:26;6.10;70.80
71668;DHT22;59504;54.806;9.640;2023-04-08T01:10:29;6.10;70.90
71668;DHT22;59504;54.806;9.640;2023-04-08T01:12:31;6.20;71.10
71668;DHT22;59504;54.806;9.640;2023-04-08T01:14:33;6.10;71.10
71668;DHT22;59504;54.806;9.640;2023-04-08T01:16:36;6.00;71.20
71668;DHT22;59504;54.806;9.640;2023-04-08T01:18:38;6.00;71.40
71668;DHT22;59504;54.806;9.640;2023-04-08T01:20:39;6.10;71.60
71668;DHT22;59504;54.806;9.640;2023-04-08T01:22:43;6.00;71.50
71668;DHT22;59504;54.806;9.640;2023-04-08T01:24:45;6.00;71.60
71668;DHT22;59504;54.806;9.640;2023-04-08T01:26:47;6.10;71.80
71668;DHT22;59504;54.806;9.640;2023-04-08T01:28:48;6.00;72.00
71668;DHT22;59504;54.806;9.640;2023-04-08T01:30:50;6.00;72.10
71668;DHT22;59504;54.806;9.640;2023-04-08T01:32:54;6.00;72.30
71668;DHT22;59504;54.806;9.640;2023-04-08T01:34:55;6.00;72.30
71668;DHT22;59504;54.806;9.640;2023-04-08T01:36:56;6.00;72.30
71668;DHT22;59504;54.806;9.640;2023-04-08T01:38:57;5.90;72.30
71668;DHT22;59504;54.806;9.640;2023-04-08T01:40:58;5.90;72.50
71668;DHT22;59504;54.806;9.640;2023-04-08T01:42:59;5.90;72.60
71668;DHT22;59504;54.806;9.640;2023-04-08T01:45:01;6.00;72.60
71668;DHT22;59504;54.806;9.640;2023-04-08T01:47:03;6.00;72.60
71668;DHT22;59504;54.806;9.640;2023-04-08T01:49:03;6.00;72.50
71668;DHT22;59504;54.806;9.640;2023-04-08T01:51:05;6.00;72.50
71668;DHT22;59504;54.806;9.640;2023-04-08T01:53:06;6.10;72.50
71668;DHT22;59504;54.806;9.640;2023-04-08T01:55:07;6.00;72.40
71668;DHT22;59504;54.806;9.640;2023-04-08T01:57:08;6.00;72.40
71668;DHT22;59504;54.806;9.640;2023-04-08T01:59:12;6.00;72.50
71668;DHT22;59504;54.806;9.640;2023-04-08T02:01:13;6.10;72.50
71668;DHT22;59504;54.806;9.640;2023-04-08T02:03:17;6.00;72.40
71668;DHT22;59504;54.806;9.640;2023-04-08T02:05:18;6.00;72.50
71668;DHT22;59504;54.806;9.640;2023-04-08T02:07:18;6.10;72.50
71668;DHT22;59504;54.806;9.640;2023-04-08T02:09:19;6.10;72.50
71668;DHT22;59504;54.806;9.640;2023-04-08T02:11:20;6.10;72.50
71668;DHT22;59504;54.806;9.640;2023-04-08T02:13:20;6.10;72.50
71668;DHT22;59504;54.806;9.640;2023-04-08T02:15:21;6.10;72.50
71668;DHT22;59504;54.806;9.640;2023-04-08T02:19:29;6.10;72.60
71668;DHT22;59504;54.806;9.640;2023-04-08T02:21:31;6.10;72.70
71668;DHT22;59504;54.806;9.640;2023-04-08T02:23:33;6.10;72.60
71668;DHT22;59504;54.806;9.640;2023-04-08T02:25:36;6.10;72.60
71668;DHT22;59504;54.806;9.640;2023-04-08T02:27:38;6.00;73.50
71668;DHT22;59504;54.806;9.640;2023-04-08T02:29:39;6.00;72.70
71668;DHT22;59504;54.806;9.640;2023-04-08T02:31:41;6.10;72.80
71668;DHT22;59504;54.806;9.640;2023-04-08T02:33:42;6.10;72.80
71668;DHT22;59504;54.806;9.640;2023-04-08T02:35:43;6.10;72.80
71668;DHT22;59504;54.806;9.640;2023-04-08T02:37:44;6.00;72.90
71668;DHT22;59504;54.806;9.640;2023-04-08T02:39:45;6.10;72.90
71668;DHT22;59504;54.806;9.640;2023-04-08T02:41:46;6.10;72.90
71668;DHT22;59504;54.806;9.640;2023-04-08T02:43:46;6.00;73.20
71668;DHT22;59504;54.806;9.640;2023-04-08T02:45:47;6.10;73.10
71668;DHT22;59504;54.806;9.640;2023-04-08T02:47:47;6.10;73.20
71668;DHT22;59504;54.806;9.640;2023-04-08T02:49:48;6.00;73.20
71668;DHT22;59504;54.806;9.640;2023-04-08T02:51:52;6.10;73.30
71668;DHT22;59504;54.806;9.640;2023-04-08T02:53:53;6.10;74.10
71668;DHT22;59504;54.806;9.640;2023-04-08T02:55:53;6.00;73.40
71668;DHT22;59504;54.806;9.640;2023-04-08T02:57:54;6.10;73.50
71668;DHT22;59504;54.806;9.640;2023-04-08T02:59:54;6.00;73.50
71668;DHT22;59504;54.806;9.640;2023-04-08T03:01:55;6.10;73.90
71668;DHT22;59504;54.806;9.640;2023-04-08T03:03:55;6.00;73.90
71668;DHT22;59504;54.806;9.640;2023-04-08T03:05:56;6.00;74.00
71668;DHT22;59504;54.806;9.640;2023-04-08T03:07:57;6.00;74.10
71668;DHT22;59504;54.806;9.640;2023-04-08T03:09:57;6.00;74.10
71668;DHT22;59504;54.806;9.640;2023-04-08T03:11:58;6.00;74.20
71668;DHT22;59504;54.806;9.640;2023-04-08T03:13:58;6.00;74.30
71668;DHT22;59504;54.806;9.640;2023-04-08T03:15:59;6.00;74.30
71668;DHT22;59504;54.806;9.640;2023-04-08T03:17:59;6.00;74.20
71668;DHT22;59504;54.806;9.640;2023-04-08T03:20:00;6.00;74.10
71668;DHT22;59504;54.806;9.640;2023-04-08T03:22:01;6.00;74.10
71668;DHT22;59504;54.806;9.640;2023-04-08T03:24:01;6.00;74.30
71668;DHT22;59504;54.806;9.640;2023-04-08T03:26:02;6.00;74.20
71668;DHT22;59504;54.806;9.640;2023-04-08T03:28:02;6.00;74.30
71668;DHT22;59504;54.806;9.640;2023-04-08T03:30:03;6.00;74.40
71668;DHT22;59504;54.806;9.640;2023-04-08T03:32:03;6.00;74.40
71668;DHT22;59504;54.806;9.640;2023-04-08T03:34:04;6.00;74.40
71668;DHT22;59504;54.806;9.640;2023-04-08T03:36:05;6.00;74.70
71668;DHT22;59504;54.806;9.640;2023-04-08T03:38:06;6.00;74.60
71668;DHT22;59504;54.806;9.640;2023-04-08T03:40:06;6.00;74.70
71668;DHT22;59504;54.806;9.640;2023-04-08T03:42:07;6.00;75.00
71668;DHT22;59504;54.806;9.640;2023-04-08T03:44:07;6.00;75.10
71668;DHT22;59504;54.806;9.640;2023-04-08T03:46:08;6.00;75.10
71668;DHT22;59504;54.806;9.640;2023-04-08T03:48:08;5.90;75.30
71668;DHT22;59504;54.806;9.640;2023-04-08T03:50:09;5.90;75.50
71668;DHT22;59504;54.806;9.640;2023-04-08T03:52:10;5.90;75.50
71668;DHT22;59504;54.806;9.640;2023-04-08T03:54:10;6.00;75.70
71668;DHT22;59504;54.806;9.640;2023-04-08T03:56:11;5.90;75.70
71668;DHT22;59504;54.806;9.640;2023-04-08T03:58:11;6.00;76.00
71668;DHT22;59504;54.806;9.640;2023-04-08T04:00:12;5.90;75.80
71668;DHT22;59504;54.806;9.640;2023-04-08T04:02:12;5.90;76.00
71668;DHT22;59504;54.806;9.640;2023-04-08T04:04:13;5.90;76.10
71668;DHT22;59504;54.806;9.640;2023-04-08T04:06:14;5.90;76.20
71668;DHT22;59504;54.806;9.640;2023-04-08T04:08:14;5.90;76.20
71668;DHT22;59504;54.806;9.640;2023-04-08T04:10:15;5.90;76.50
71668;DHT22;59504;54.806;9.640;2023-04-08T04:12:15;5.90;76.50
71668;DHT22;59504;54.806;9.640;2023-04-08T04:14:16;5.90;76.50
71668;DHT22;59504;54.806;9.640;2023-04-08T04:16:16;5.90;76.60
71668;DHT22;59504;54.806;9.640;2023-04-08T04:18:17;5.90;76.60
71668;DHT22;59504;54.806;9.640;2023-04-08T04:20:18;5.90;76.80
71668;DHT22;59504;54.806;9.640;2023-04-08T04:22:18;5.90;76.90
71668;DHT22;59504;54.806;9.640;2023-04-08T04:24:19;5.80;76.90
71668;DHT22;59504;54.806;9.640;2023-04-08T04:26:19;5.90;77.10
71668;DHT22;59504;54.806;9.640;2023-04-08T04:28:20;5.80;77.00
71668;DHT22;59504;54.806;9.640;2023-04-08T04:30:20;5.90;77.20
71668;DHT22;59504;54.806;9.640;2023-04-08T04:32:21;5.80;76.90
71668;DHT22;59504;54.806;9.640;2023-04-08T04:34:21;5.90;77.10
71668;DHT22;59504;54.806;9.640;2023-04-08T04:36:22;5.90;77.10
71668;DHT22;59504;54.806;9.640;2023-04-08T04:38:23;5.80;77.20
71668;DHT22;59504;54.806;9.640;2023-04-08T04:40:23;5.80;77.20
71668;DHT22;59504;54.806;9.640;2023-04-08T04:42:24;5.90;77.30
71668;DHT22;59504;54.806;9.640;2023-04-08T04:44:24;5.80;77.50
71668;DHT22;59504;54.806;9.640;2023-04-08T04:46:25;5.80;77.70
71668;DHT22;59504;54.806;9.640;2023-04-08T04:48:25;5.90;77.60
71668;DHT22;59504;54.806;9.640;2023-04-08T04:50:26;5.90;77.60
71668;DHT22;59504;54.806;9.640;2023-04-08T04:52:26;5.90;77.70
71668;DHT22;59504;54.806;9.640;2023-04-08T04:54:27;5.90;77.60
71668;DHT22;59504;54.806;9.640;2023-04-08T04:56:28;5.90;77.60
71668;DHT22;59504;54.806;9.640;2023-04-08T04:58:28;5.80;77.60
71668;DHT22;59504;54.806;9.640;2023-04-08T05:00:29;5.90;78.00
71668;DHT22;59504;54.806;9.640;2023-04-08T05:02:30;5.90;77.80
71668;DHT22;59504;54.806;9.640;2023-04-08T05:04:30;5.90;77.90
71668;DHT22;59504;54.806;9.640;2023-04-08T05:06:31;5.90;77.80
71668;DHT22;59504;54.806;9.640;2023-04-08T05:08:31;5.90;77.80
71668;DHT22;59504;54.806;9.640;2023-04-08T05:10:32;5.90;78.60
71668;DHT22;59504;54.806;9.640;2023-04-08T05:12:32;6.00;77.90
71668;DHT22;59504;54.806;9.640;2023-04-08T05:14:37;5.90;77.90
71668;DHT22;59504;54.806;9.640;2023-04-08T05:16:38;6.00;78.00
71668;DHT22;59504;54.806;9.640;2023-04-08T05:18:39;6.00;77.90
71668;DHT22;59504;54.806;9.640;2023-04-08T05:20:39;6.00;78.10
71668;DHT22;59504;54.806;9.640;2023-04-08T05:22:40;6.00;78.30
71668;DHT22;59504;54.806;9.640;2023-04-08T05:24:41;5.90;78.10
71668;DHT22;59504;54.806;9.640;2023-04-08T05:26:42;6.00;78.30
71668;DHT22;59504;54.806;9.640;2023-04-08T05:28:42;6.00;78.50
71668;DHT22;59504;54.806;9.640;2023-04-08T05:30:47;6.10;78.40
71668;DHT22;59504;54.806;9.640;2023-04-08T05:32:48;6.00;78.40
71668;DHT22;59504;54.806;9.640;2023-04-08T05:34:48;6.10;78.50
71668;DHT22;59504;54.806;9.640;2023-04-08T05:36:49;6.00;78.40
71668;DHT22;59504;54.806;9.640;2023-04-08T05:38:52;6.00;78.50
71668;DHT22;59504;54.806;9.640;2023-04-08T05:40:53;6.10;78.50
71668;DHT22;59504;54.806;9.640;2023-04-08T05:42:53;6.10;78.50
71668;DHT22;59504;54.806;9.640;2023-04-08T05:44:53;6.00;78.50
71668;DHT22;59504;54.806;9.640;2023-04-08T05:46:54;6.00;78.60
71668;DHT22;59504;54.806;9.640;2023-04-08T05:48:56;6.00;78.70
71668;DHT22;59504;54.806;9.640;2023-04-08T05:50:57;6.00;78.80
71668;DHT22;59504;54.806;9.640;2023-04-08T05:52:57;6.10;78.60
71668;DHT22;59504;54.806;9.640;2023-04-08T05:54:58;6.10;78.70
71668;DHT22;59504;54.806;9.640;2023-04-08T05:56:58;6.00;78.60
71668;DHT22;59504;54.806;9.640;2023-04-08T05:58:59;6.10;78.80
71668;DHT22;59504;54.806;9.640;2023-04-08T06:01:00;6.00;78.80
71668;DHT22;59504;54.806;9.640;2023-04-08T06:03:00;6.10;79.00
71668;DHT22;59504;54.806;9.640;2023-04-08T06:05:01;6.10;78.80
71668;DHT22;59504;54.806;9.640;2023-04-08T06:07:02;6.10;78.70
71668;DHT22;59504;54.806;9.640;2023-04-08T06:09:05;6.10;78.80
71668;DHT22;59504;54.806;9.640;2023-04-08T06:15:38;6.10;79.00
71668;DHT22;59504;54.806;9.640;2023-04-08T06:20:00;6.10;78.90
71668;DHT22;59504;54.806;9.640;2023-04-08T06:22:29;6.10;78.80
71668;DHT22;59504;54.806;9.640;2023-04-08T06:24:30;6.20;78.90
71668;DHT22;59504;54.806;9.640;2023-04-08T06:26:30;6.20;78.90
71668;DHT22;59504;54.806;9.640;2023-04-08T06:28:31;6.20;78.90
71668;DHT22;59504;54.806;9.640;2023-04-08T06:30:32;6.20;79.00
71668;DHT22;59504;54.806;9.640;2023-04-08T06:32:32;6.20;78.70
71668;DHT22;59504;54.806;9.640;2023-04-08T06:34:32;6.20;78.60
71668;DHT22;59504;54.806;9.640;2023-04-08T06:36:33;6.20;78.70
71668;DHT22;59504;54.806;9.640;2023-04-08T06:38:33;6.30;78.80
71668;DHT22;59504;54.806;9.640;2023-04-08T06:40:37;6.20;78.60
71668;DHT22;59504;54.806;9.640;2023-04-08T06:42:38;6.20;78.60
71668;DHT22;59504;54.806;9.640;2023-04-08T06:44:40;6.30;78.70
71668;DHT22;59504;54.806;9.640;2023-04-08T06:46:40;6.20;78.40
71668;DHT22;59504;54.806;9.640;2023-04-08T06:48:41;6.30;78.60
71668;DHT22;59504;54.806;9.640;2023-04-08T06:50:41;6.30;78.80
71668;DHT22;59504;54.806;9.640;2023-04-08T06:52:42;6.20;78.60
71668;DHT22;59504;54.806;9.640;2023-04-08T06:54:42;6.30;78.50
71668;DHT22;59504;54.806;9.640;2023-04-08T06:56:43;6.30;78.50
71668;DHT22;59504;54.806;9.640;2023-04-08T06:58:43;6.30;78.60
71668;DHT22;59504;54.806;9.640;2023-04-08T07:00:44;6.30;78.40
71668;DHT22;59504;54.806;9.640;2023-04-08T07:02:44;6.30;78.30
71668;DHT22;59504;54.806;9.640;2023-04-08T07:04:45;6.40;78.50
71668;DHT22;59504;54.806;9.640;2023-04-08T07:06:46;6.40;78.20
71668;DHT22;59504;54.806;9.640;2023-04-08T07:08:46;6.50;78.30
71668;DHT22;59504;54.806;9.640;2023-04-08T07:10:46;6.50;78.20
71668;DHT22;59504;54.806;9.640;2023-04-08T07:12:47;6.50;78.10
71668;DHT22;59504;54.806;9.640;2023-04-08T07:14:48;6.60;77.80
71668;DHT22;59504;54.806;9.640;2023-04-08T07:16:48;6.60;77.90
71668;DHT22;59504;54.806;9.640;2023-04-08T07:18:49;6.70;77.80
71668;DHT22;59504;54.806;9.640;2023-04-08T07:20:51;6.70;77.80
71668;DHT22;59504;54.806;9.640;2023-04-08T07:22:55;6.70;77.30
71668;DHT22;59504;54.806;9.640;2023-04-08T07:24:56;6.80;77.10
71668;DHT22;59504;54.806;9.640;2023-04-08T07:26:56;6.90;77.20
71668;DHT22;59504;54.806;9.640;2023-04-08T07:28:57;6.80;77.10
71668;DHT22;59504;54.806;9.640;2023-04-08T07:31:10;7.00;77.00
71668;DHT22;59504;54.806;9.640;2023-04-08T07:33:11;6.90;76.80
71668;DHT22;59504;54.806;9.640;2023-04-08T07:35:12;6.90;76.40
71668;DHT22;59504;54.806;9.640;2023-04-08T07:37:12;6.90;76.10
71668;DHT22;59504;54.806;9.640;2023-04-08T07:39:13;6.90;75.80
71668;DHT22;59504;54.806;9.640;2023-04-08T07:41:13;6.90;75.90
71668;DHT22;59504;54.806;9.640;2023-04-08T07:43:14;7.00;75.80
71668;DHT22;59504;54.806;9.640;2023-04-08T07:45:14;7.00;75.70
71668;DHT22;59504;54.806;9.640;2023-04-08T07:47:18;7.10;75.90
71668;DHT22;59504;54.806;9.640;2023-04-08T07:49:21;7.10;76.20
71668;DHT22;59504;54.806;9.640;2023-04-08T07:51:22;7.20;75.90
71668;DHT22;59504;54.806;9.640;2023-04-08T07:53:22;7.10;76.80
71668;DHT22;59504;54.806;9.640;2023-04-08T07:55:24;7.20;76.10
71668;DHT22;59504;54.806;9.640;2023-04-08T07:57:25;7.40;76.10
71668;DHT22;59504;54.806;9.640;2023-04-08T07:59:25;7.40;76.00
71668;DHT22;59504;54.806;9.640;2023-04-08T08:01:26;7.40;74.90
71668;DHT22;59504;54.806;9.640;2023-04-08T08:03:30;7.40;74.60
71668;DHT22;59504;54.806;9.640;2023-04-08T08:05:31;7.50;73.40
71668;DHT22;59504;54.806;9.640;2023-04-08T08:07:31;7.50;73.30
71668;DHT22;59504;54.806;9.640;2023-04-08T08:09:32;7.50;72.80
71668;DHT22;59504;54.806;9.640;2023-04-08T08:11:32;7.50;73.10
71668;DHT22;59504;54.806;9.640;2023-04-08T08:13:33;7.50;73.00
71668;DHT22;59504;54.806;9.640;2023-04-08T08:15:34;7.50;72.20
71668;DHT22;59504;54.806;9.640;2023-04-08T08:17:40;7.40;72.40
71668;DHT22;59504;54.806;9.640;2023-04-08T08:19:41;7.40;72.50
71668;DHT22;59504;54.806;9.640;2023-04-08T08:21:41;7.40;72.50
71668;DHT22;59504;54.806;9.640;2023-04-08T08:23:41;7.30;72.60
71668;DHT22;59504;54.806;9.640;2023-04-08T08:25:42;7.40;73.30
71668;DHT22;59504;54.806;9.640;2023-04-08T08:27:43;7.30;73.10
71668;DHT22;59504;54.806;9.640;2023-04-08T08:29:44;7.40;73.50
71668;DHT22;59504;54.806;9.640;2023-04-08T08:31:51;7.40;73.40
71668;DHT22;59504;54.806;9.640;2023-04-08T08:33:51;7.40;73.40
71668;DHT22;59504;54.806;9.640;2023-04-08T08:35:52;7.40;73.40
71668;DHT22;59504;54.806;9.640;2023-04-08T08:37:52;7.50;73.30
71668;DHT22;59504;54.806;9.640;2023-04-08T08:39:53;7.50;73.10
71668;DHT22;59504;54.806;9.640;2023-04-08T08:41:53;7.40;72.30
71668;DHT22;59504;54.806;9.640;2023-04-08T08:43:56;7.50;72.40
71668;DHT22;59504;54.806;9.640;2023-04-08T08:45:56;7.50;72.60
71668;DHT22;59504;54.806;9.640;2023-04-08T08:47:57;7.60;72.70
71668;DHT22;59504;54.806;9.640;2023-04-08T08:49:57;7.70;72.70
71668;DHT22;59504;54.806;9.640;2023-04-08T08:51:58;7.60;72.20
71668;DHT22;59504;54.806;9.640;2023-04-08T08:54:02;7.60;72.30
71668;DHT22;59504;54.806;9.640;2023-04-08T08:56:04;7.60;71.90
71668;DHT22;59504;54.806;9.640;2023-04-08T08:58:19;7.60;72.10
71668;DHT22;59504;54.806;9.640;2023-04-08T09:00:33;7.60;71.60
71668;DHT22;59504;54.806;9.640;2023-04-08T09:02:34;7.70;71.80
71668;DHT22;59504;54.806;9.640;2023-04-08T09:04:35;7.70;71.90
71668;DHT22;59504;54.806;9.640;2023-04-08T09:06:36;7.70;71.90
71668;DHT22;59504;54.806;9.640;2023-04-08T09:08:37;7.70;71.50
71668;DHT22;59504;54.806;9.640;2023-04-08T09:10:38;7.70;71.50
71668;DHT22;59504;54.806;9.640;2023-04-08T09:12:54;7.70;71.60
71668;DHT22;59504;54.806;9.640;2023-04-08T09:17:04;7.70;72.00
71668;DHT22;59504;54.806;9.640;2023-04-08T09:19:10;7.70;72.20
71668;DHT22;59504;54.806;9.640;2023-04-08T09:22:04;7.80;72.50
71668;DHT22;59504;54.806;9.640;2023-04-08T09:24:06;7.80;71.90
71668;DHT22;59504;54.806;9.640;2023-04-08T09:26:07;7.80;71.90
71668;DHT22;59504;54.806;9.640;2023-04-08T09:28:17;7.80;71.60
71668;DHT22;59504;54.806;9.640;2023-04-08T09:30:22;7.80;71.50
71668;DHT22;59504;54.806;9.640;2023-04-08T09:32:23;7.90;71.30
71668;DHT22;59504;54.806;9.640;2023-04-08T09:34:24;8.00;70.90
71668;DHT22;59504;54.806;9.640;2023-04-08T09:36:25;8.10;70.90
71668;DHT22;59504;54.806;9.640;2023-04-08T09:38:28;8.00;70.30
71668;DHT22;59504;54.806;9.640;2023-04-08T09:40:30;8.00;70.00
71668;DHT22;59504;54.806;9.640;2023-04-08T09:42:33;8.00;70.10
71668;DHT22;59504;54.806;9.640;2023-04-08T09:44:34;8.10;70.40
71668;DHT22;59504;54.806;9.640;2023-04-08T09:46:44;8.10;69.90
71668;DHT22;59504;54.806;9.640;2023-04-08T09:51:18;8.10;69.40
71668;DHT22;59504;54.806;9.640;2023-04-08T09:53:19;8.10;69.90
71668;DHT22;59504;54.806;9.640;2023-04-08T09:55:25;8.20;70.00
71668;DHT22;59504;54.806;9.640;2023-04-08T09:57:39;8.40;70.90
71668;DHT22;59504;54.806;9.640;2023-04-08T09:59:44;8.20;70.00
71668;DHT22;59504;54.806;9.640;2023-04-08T10:01:51;8.20;70.10
71668;DHT22;59504;54.806;9.640;2023-04-08T10:03:53;8.20;69.40
71668;DHT22;59504;54.806;9.640;2023-04-08T10:05:53;8.10;69.60
71668;DHT22;59504;54.806;9.640;2023-04-08T10:07:55;8.20;70.40
71668;DHT22;59504;54.806;9.640;2023-04-08T10:09:57;8.30;69.50
71668;DHT22;59504;54.806;9.640;2023-04-08T10:14:08;8.40;69.40
71668;DHT22;59504;54.806;9.640;2023-04-08T10:16:18;8.40;68.70
71668;DHT22;59504;54.806;9.640;2023-04-08T10:20:39;8.60;68.30
71668;DHT22;59504;54.806;9.640;2023-04-08T10:22:46;8.60;69.10
71668;DHT22;59504;54.806;9.640;2023-04-08T10:27:23;8.70;68.90
71668;DHT22;59504;54.806;9.640;2023-04-08T10:29:30;8.70;68.00
71668;DHT22;59504;54.806;9.640;2023-04-08T10:31:31;8.70;67.30
71668;DHT22;59504;54.806;9.640;2023-04-08T10:33:39;8.70;68.00
71668;DHT22;59504;54.806;9.640;2023-04-08T10:35:45;8.80;68.00
71668;DHT22;59504;54.806;9.640;2023-04-08T10:37:46;9.00;68.50
71668;DHT22;59504;54.806;9.640;2023-04-08T10:39:48;8.80;67.60
71668;DHT22;59504;54.806;9.640;2023-04-08T10:41:48;8.90;67.70
71668;DHT22;59504;54.806;9.640;2023-04-08T10:43:49;8.90;67.80
71668;DHT22;59504;54.806;9.640;2023-04-08T10:45:50;9.00;67.70
71668;DHT22;59504;54.806;9.640;2023-04-08T10:47:52;9.00;67.60
71668;DHT22;59504;54.806;9.640;2023-04-08T10:49:53;9.10;67.70
71668;DHT22;59504;54.806;9.640;2023-04-08T10:51:53;9.10;67.40
71668;DHT22;59504;54.806;9.640;2023-04-08T10:54:04;9.10;66.60
71668;DHT22;59504;54.806;9.640;2023-04-08T10:56:14;9.10;66.90
71668;DHT22;59504;54.806;9.640;2023-04-08T10:58:17;9.20;67.10
71668;DHT22;59504;54.806;9.640;2023-04-08T11:00:17;9.20;68.00
71668;DHT22;59504;54.806;9.640;2023-04-08T11:02:18;9.30;68.50
71668;DHT22;59504;54.806;9.640;2023-04-08T11:04:19;9.30;68.00
71668;DHT22;59504;54.806;9.640;2023-04-08T11:06:19;9.40;67.20
71668;DHT22;59504;54.806;9.640;2023-04-08T11:08:26;9.50;66.60
71668;DHT22;59504;54.806;9.640;2023-04-08T11:10:26;9.60;66.00
71668;DHT22;59504;54.806;9.640;2023-04-08T11:12:28;9.60;66.10
71668;DHT22;59504;54.806;9.640;2023-04-08T11:14:29;9.60;65.60
71668;DHT22;59504;54.806;9.640;2023-04-08T11:16:30;9.50;64.30
71668;DHT22;59504;54.806;9.640;2023-04-08T11:18:33;9.60;65.10
71668;DHT22;59504;54.806;9.640;2023-04-08T11:20:34;9.60;64.80
71668;DHT22;59504;54.806;9.640;2023-04-08T11:22:36;9.70;64.90
71668;DHT22;59504;54.806;9.640;2023-04-08T11:24:36;9.70;65.10
71668;DHT22;59504;54.806;9.640;2023-04-08T11:26:38;9.80;65.00
71668;DHT22;59504;54.806;9.640;2023-04-08T11:28:41;9.90;65.40
71668;DHT22;59504;54.806;9.640;2023-04-08T11:30:42;9.90;64.40
71668;DHT22;59504;54.806;9.640;2023-04-08T11:32:43;9.90;63.70
71668;DHT22;59504;54.806;9.640;2023-04-08T11:34:44;9.90;64.20
71668;DHT22;59504;54.806;9.640;2023-04-08T11:36:46;10.00;64.40
71668;DHT22;59504;54.806;9.640;2023-04-08T11:38:47;10.00;64.50
71668;DHT22;59504;54.806;9.640;2023-04-08T11:40:57;10.10;64.30
71668;DHT22;59504;54.806;9.640;2023-04-08T11:43:08;10.10;64.70
71668;DHT22;59504;54.806;9.640;2023-04-08T11:45:09;10.20;64.10
71668;DHT22;59504;54.806;9.640;2023-04-08T11:47:10;10.20;63.80
71668;DHT22;59504;54.806;9.640;2023-04-08T11:49:11;10.30;64.30
71668;DHT22;59504;54.806;9.640;2023-04-08T11:51:11;10.30;64.00
71668;DHT22;59504;54.806;9.640;2023-04-08T11:53:23;10.40;63.90
71668;DHT22;59504;54.806;9.640;2023-04-08T11:55:25;10.40;63.50
71668;DHT22;59504;54.806;9.640;2023-04-08T11:57:29;10.60;64.00
71668;DHT22;59504;54.806;9.640;2023-04-08T11:59:29;10.50;63.00
71668;DHT22;59504;54.806;9.640;2023-04-08T12:01:30;10.50;61.70
71668;DHT22;59504;54.806;9.640;2023-04-08T12:03:31;10.50;62.20
71668;DHT22;59504;54.806;9.640;2023-04-08T12:05:31;10.50;61.20
71668;DHT22;59504;54.806;9.640;2023-04-08T12:07:32;10.50;61.10
71668;DHT22;59504;54.806;9.640;2023-04-08T12:09:33;10.30;61.30
71668;DHT22;59504;54.806;9.640;2023-04-08T12:11:33;10.30;61.00
71668;DHT22;59504;54.806;9.640;2023-04-08T12:13:34;10.20;61.10
71668;DHT22;59504;54.806;9.640;2023-04-08T12:15:34;10.30;62.20
71668;DHT22;59504;54.806;9.640;2023-04-08T12:17:35;10.20;61.00
71668;DHT22;59504;54.806;9.640;2023-04-08T12:19:38;10.10;61.00
71668;DHT22;59504;54.806;9.640;2023-04-08T12:21:41;10.20;62.60
71668;DHT22;59504;54.806;9.640;2023-04-08T12:23:43;10.10;61.70
71668;DHT22;59504;54.806;9.640;2023-04-08T12:25:44;10.20;62.40
71668;DHT22;59504;54.806;9.640;2023-04-08T12:27:45;10.10;62.20
71668;DHT22;59504;54.806;9.640;2023-04-08T12:29:45;10.20;62.50
71668;DHT22;59504;54.806;9.640;2023-04-08T12:31:46;10.20;61.60
71668;DHT22;59504;54.806;9.640;2023-04-08T12:33:46;10.30;62.20
71668;DHT22;59504;54.806;9.640;2023-04-08T12:35:47;10.20;61.40
71668;DHT22;59504;54.806;9.640;2023-04-08T12:37:50;10.10;60.90
71668;DHT22;59504;54.806;9.640;2023-04-08T12:39:50;10.00;60.70
71668;DHT22;59504;54.806;9.640;2023-04-08T12:41:54;10.20;61.70
71668;DHT22;59504;54.806;9.640;2023-04-08T12:43:56;10.10;62.90
71668;DHT22;59504;54.806;9.640;2023-04-08T12:46:12;10.20;62.60
71668;DHT22;59504;54.806;9.640;2023-04-08T12:48:13;10.10;62.20
71668;DHT22;59504;54.806;9.640;2023-04-08T12:50:13;10.00;61.50
71668;DHT22;59504;54.806;9.640;2023-04-08T12:52:17;9.90;61.90
71668;DHT22;59504;54.806;9.640;2023-04-08T12:54:19;10.10;62.50
71668;DHT22;59504;54.806;9.640;2023-04-08T12:56:19;9.90;61.70
71668;DHT22;59504;54.806;9.640;2023-04-08T12:58:20;9.80;61.80
71668;DHT22;59504;54.806;9.640;2023-04-08T13:00:21;9.80;62.20
71668;DHT22;59504;54.806;9.640;2023-04-08T13:02:24;9.90;62.10
71668;DHT22;59504;54.806;9.640;2023-04-08T13:04:26;9.80;62.30
71668;DHT22;59504;54.806;9.640;2023-04-08T13:06:29;9.80;61.20
71668;DHT22;59504;54.806;9.640;2023-04-08T13:08:31;9.70;61.90
71668;DHT22;59504;54.806;9.640;2023-04-08T13:10:32;9.80;61.20
71668;DHT22;59504;54.806;9.640;2023-04-08T13:12:34;9.70;61.40
71668;DHT22;59504;54.806;9.640;2023-04-08T13:14:34;9.70;61.10
71668;DHT22;59504;54.806;9.640;2023-04-08T13:16:35;9.90;62.50
71668;DHT22;59504;54.806;9.640;2023-04-08T13:18:36;9.80;61.40
71668;DHT22;59504;54.806;9.640;2023-04-08T13:20:37;9.80;62.20
71668;DHT22;59504;54.806;9.640;2023-04-08T13:22:37;9.80;62.20
71668;DHT22;59504;54.806;9.640;2023-04-08T13:24:38;9.90;62.80
71668;DHT22;59504;54.806;9.640;2023-04-08T13:26:38;9.80;63.80
71668;DHT22;59504;54.806;9.640;2023-04-08T13:28:39;9.80;62.90
71668;DHT22;59504;54.806;9.640;2023-04-08T13:30:39;9.90;62.90